Time;durP1;ratioP1;P1;durP2;ratioP2;P2;SDS_P1;SDS_P2;PMS_P1;PMS_P2;Temp;Humidity;BMP_temperature;BMP_pressure;BME280_temperature;BME280_humidity;BME280_pressure;Samples;Min_cycle;Max_cycle;Signal;HPM_P1;HPM_P2
2022/12/25 00:01:06;;;;;;;61.42;18.02;;;;;;;6.28;100.00;101385.41;4982386;28;20026;-89
2022/12/25 00:03:31;;;;;;;60.83;18.90;;;;;;;6.19;100.00;101384.63;4982703;28;20568;-89
2022/12/25 00:05:58;;;;;;;50.63;20.17;;;;;;;6.25;100.00;101383.28;4984840;28;20027;-89
2022/12/25 00:08:24;;;;;;;55.28;19.77;;;;;;;6.14;100.00;101373.69;4996540;28;20041;-89
2022/12/25 00:11:00;;;;;;;59.28;19.65;;;;;;;6.20;100.00;101358.47;4994371;28;20019;-89
2022/12/25 00:13:26;;;;;;;60.33;20.15;;;;;;;6.19;100.00;101356.81;4981501;28;20032;-89
2022/12/25 00:15:51;;;;;;;53.65;20.00;;;;;;;6.11;100.00;101341.00;4991079;28;20033;-89
2022/12/25 00:18:16;;;;;;;47.63;18.05;;;;;;;6.37;100.00;101349.19;4990308;28;20041;-89
2022/12/25 00:20:42;;;;;;;53.65;20.00;;;;;;;6.24;100.00;101337.19;4988180;28;20026;-89
2022/12/25 00:23:07;;;;;;;53.55;18.38;;;;;;;6.24;100.00;101320.50;4991931;28;20034;-89
2022/12/25 00:25:32;;;;;;;56.75;20.30;;;;;;;6.27;100.00;101327.34;4990494;28;20505;-88
2022/12/25 00:27:58;;;;;;;60.30;17.42;;;;;;;6.29;100.00;101323.06;5005628;28;20504;-89
2022/12/25 00:30:23;;;;;;;60.75;19.90;;;;;;;6.29;100.00;101319.47;4991563;28;20034;-89
2022/12/25 00:32:48;;;;;;;66.70;20.90;;;;;;;6.15;100.00;101316.94;4990605;28;20065;-89
2022/12/25 00:35:14;;;;;;;70.45;21.23;;;;;;;6.09;100.00;101287.72;4999854;28;20045;-89
2022/12/25 00:37:39;;;;;;;44.92;18.05;;;;;;;6.27;100.00;101317.03;5006898;28;20073;-89
2022/12/25 00:40:05;;;;;;;55.78;17.98;;;;;;;6.22;100.00;101321.97;4991405;28;20034;-88
2022/12/25 00:42:31;;;;;;;54.03;17.80;;;;;;;6.10;100.00;101287.41;4980621;28;20026;-89
2022/12/25 00:44:56;;;;;;;53.05;19.90;;;;;;;6.26;100.00;101311.81;4996365;28;20030;-89
2022/12/25 00:47:22;;;;;;;53.08;18.25;;;;;;;6.18;100.00;101296.03;4985365;28;20514;-89
2022/12/25 00:49:47;;;;;;;55.83;19.30;;;;;;;6.32;100.00;101338.25;5007833;28;20026;-89
2022/12/25 00:52:12;;;;;;;46.53;17.00;;;;;;;6.39;100.00;101333.00;5005918;28;20054;-89
2022/12/25 00:54:38;;;;;;;65.10;19.17;;;;;;;6.39;100.00;101326.59;4991831;28;20486;-89
2022/12/25 00:57:03;;;;;;;49.58;18.05;;;;;;;6.44;100.00;101343.09;4991477;28;20066;-89
2022/12/25 00:59:33;;;;;;;51.85;17.23;;;;;;;6.46;100.00;101343.56;4998716;28;20026;-90
2022/12/25 01:04:43;;;;;;;44.63;16.23;;;;;;;6.21;100.00;101307.25;4980257;28;20057;-89
2022/12/25 01:07:08;;;;;;;49.00;15.65;;;;;;;6.36;100.00;101338.41;4987491;28;20394;-89
2022/12/25 01:12:18;;;;;;;43.42;16.20;;;;;;;6.23;100.00;101356.97;4982401;28;20083;-89
2022/12/25 01:14:43;;;;;;;47.40;17.83;;;;;;;6.29;100.00;101350.88;4981430;28;20482;-89
2022/12/25 01:17:08;;;;;;;46.17;16.42;;;;;;;6.26;100.00;101347.94;4981069;28;20566;-89
2022/12/25 01:19:34;;;;;;;41.65;17.60;;;;;;;6.31;100.00;101347.75;4983965;28;20042;-89
2022/12/25 01:21:59;;;;;;;48.88;17.15;;;;;;;6.35;100.00;101342.34;4978323;28;20114;-89
2022/12/25 01:24:24;;;;;;;52.53;16.48;;;;;;;6.28;100.00;101321.47;4984134;28;20049;-89
2022/12/25 01:26:50;;;;;;;65.00;16.95;;;;;;;6.41;100.00;101338.19;4998552;28;20114;-89
2022/12/25 01:29:15;;;;;;;60.17;18.73;;;;;;;6.53;100.00;101349.38;4988408;28;20053;-89
2022/12/25 01:31:40;;;;;;;64.20;17.15;;;;;;;6.38;100.00;101333.31;4988853;28;20139;-88
2022/12/25 01:34:06;;;;;;;54.85;18.50;;;;;;;6.39;100.00;101337.72;4986841;28;20022;-89
2022/12/25 01:36:31;;;;;;;58.58;19.23;;;;;;;6.53;100.00;101349.38;4989764;28;20044;-90
2022/12/25 01:38:57;;;;;;;53.30;18.20;;;;;;;6.60;100.00;101351.63;5003637;28;20030;-89
2022/12/25 01:41:23;;;;;;;58.45;18.45;;;;;;;6.64;100.00;101356.19;4993630;28;20085;-88
2022/12/25 01:44:01;;;;;;;46.53;17.85;;;;;;;6.63;100.00;101362.91;5004717;28;20026;-89
2022/12/25 01:46:28;;;;;;;57.90;17.70;;;;;;;6.62;100.00;101361.28;4982445;28;20029;-89
2022/12/25 01:48:56;;;;;;;54.10;17.27;;;;;;;6.58;100.00;101351.97;4986245;28;20022;-89
2022/12/25 01:51:28;;;;;;;55.55;18.25;;;;;;;6.38;100.00;101319.41;4987944;28;20500;-89
2022/12/25 01:53:56;;;;;;;75.88;25.70;;;;;;;6.61;100.00;101358.84;4992192;28;20360;-89
2022/12/25 01:56:24;;;;;;;49.20;19.20;;;;;;;6.65;100.00;101363.38;4984167;28;20039;-89
2022/12/25 01:58:49;;;;;;;55.15;17.85;;;;;;;6.62;100.00;101368.78;4985521;28;20482;-89
2022/12/25 02:01:15;;;;;;;39.45;15.55;;;;;;;6.50;100.00;101344.53;4996824;28;20098;-89
2022/12/25 02:03:41;;;;;;;59.53;19.13;;;;;;;6.76;100.00;101365.75;4980561;28;20047;-89
2022/12/25 02:06:07;;;;;;;50.67;17.10;;;;;;;6.73;100.00;101358.91;4984683;28;20390;-89
2022/12/25 02:08:33;;;;;;;61.65;18.58;;;;;;;6.72;100.00;101368.38;4995948;28;20391;-90
2022/12/25 02:10:58;;;;;;;41.38;15.60;;;;;;;6.62;100.00;101340.97;4986953;28;20101;-89
2022/12/25 02:13:25;;;;;;;39.97;13.68;;;;;;;6.74;100.00;101366.06;4998450;28;20126;-90
2022/12/25 02:16:14;;;;;;;43.88;16.77;;;;;;;6.80;100.00;101358.34;4996066;28;20502;-90
2022/12/25 02:18:48;;;;;;;49.97;17.15;;;;;;;6.74;100.00;101365.28;4998021;28;20026;-89
2022/12/25 02:21:42;;;;;;;45.10;15.15;;;;;;;6.53;100.00;101352.16;4996672;28;20077;-90
2022/12/25 02:24:35;;;;;;;46.92;16.63;;;;;;;6.71;100.00;101381.50;4981413;28;20113;-89
2022/12/25 02:27:06;;;;;;;38.15;15.25;;;;;;;6.68;100.00;101375.78;4981991;28;20027;-89
2022/12/25 02:29:46;;;;;;;48.97;18.40;;;;;;;6.55;100.00;101383.25;4985603;28;20026;-89
2022/12/25 02:32:34;;;;;;;56.17;16.10;;;;;;;6.63;100.00;101374.03;5002437;28;20113;-90
2022/12/25 02:35:16;;;;;;;40.42;16.40;;;;;;;6.55;100.00;101374.91;4986821;28;20042;-89
2022/12/25 02:38:03;;;;;;;49.53;16.83;;;;;;;6.61;100.00;101373.53;4984061;28;20501;-90
2022/12/25 02:40:39;;;;;;;46.25;16.08;;;;;;;6.55;100.00;101368.53;4983429;28;20034;-90
2022/12/25 03:08:36;;;;;;;35.97;12.27;;;;;;;6.80;100.00;101338.88;4987639;28;20093;-90
2022/12/25 03:16:49;;;;;;;34.38;13.55;;;;;;;6.69;100.00;101330.94;4980704;28;20621;-90
2022/12/25 03:16:51;;;;;;;35.10;12.48;;;;;;;6.57;100.00;101318.94;4983649;28;20092;-89
2022/12/25 03:27:38;;;;;;;32.55;15.35;;;;;;;6.55;100.00;101307.34;4982132;28;20036;-89
2022/12/25 03:32:57;;;;;;;43.40;13.93;;;;;;;6.55;100.00;101296.22;4989759;28;20040;-89
2022/12/25 03:35:45;;;;;;;28.40;12.43;;;;;;;6.44;100.00;101299.41;4999317;28;20145;-89
2022/12/25 04:37:33;;;;;;;44.15;17.83;;;;;;;7.00;100.00;101285.16;4984955;28;20045;-89
2022/12/25 04:39:59;;;;;;;50.45;16.80;;;;;;;7.08;100.00;101287.03;4980396;28;20386;-89
2022/12/25 04:42:24;;;;;;;48.60;17.90;;;;;;;7.10;100.00;101281.09;4992998;28;20574;-89
2022/12/25 04:44:49;;;;;;;61.00;18.52;;;;;;;7.07;100.00;101279.81;4980815;28;20034;-90
2022/12/25 04:47:15;;;;;;;47.90;16.00;;;;;;;7.03;100.00;101284.44;4996346;28;20026;-89
2022/12/25 04:49:40;;;;;;;67.68;20.45;;;;;;;7.02;100.00;101282.00;4976483;28;20039;-90
2022/12/25 04:52:06;;;;;;;44.72;17.50;;;;;;;6.91;100.00;101270.50;4991390;28;20584;-90
2022/12/25 04:54:31;;;;;;;46.80;17.23;;;;;;;7.06;100.00;101296.88;4983464;28;20038;-89
2022/12/25 04:56:56;;;;;;;44.08;17.55;;;;;;;7.08;100.00;101298.16;4979604;28;20494;-89
2022/12/25 04:59:22;;;;;;;54.72;19.23;;;;;;;6.94;100.00;101272.63;4980544;28;20580;-89
2022/12/25 05:01:47;;;;;;;56.50;19.80;;;;;;;7.06;100.00;101289.34;4991379;28;20129;-90
2022/12/25 05:04:13;;;;;;;54.88;18.77;;;;;;;7.13;100.00;101297.13;4983000;28;20494;-89
2022/12/25 05:06:39;;;;;;;46.67;18.27;;;;;;;6.93;100.00;101265.41;4983655;28;20026;-89
2022/12/25 05:09:04;;;;;;;51.25;18.08;;;;;;;7.07;100.00;101285.41;4983029;28;20470;-90
2022/12/25 05:11:29;;;;;;;44.22;19.10;;;;;;;7.21;100.00;101300.97;4983910;28;20034;-89
2022/12/25 05:13:56;;;;;;;62.90;18.98;;;;;;;7.24;100.00;101300.28;4983901;28;20042;-90
2022/12/25 05:16:21;;;;;;;45.75;18.70;;;;;;;7.03;100.00;101266.94;4983887;28;20109;-90
2022/12/25 05:18:48;;;;;;;55.97;19.63;;;;;;;7.12;100.00;101271.25;4979276;28;20139;-89
2022/12/25 05:21:14;;;;;;;61.00;19.85;;;;;;;7.36;100.00;101297.53;4997105;28;20030;-90
2022/12/25 05:23:47;;;;;;;60.70;19.33;;;;;;;7.30;100.00;101283.00;4980254;28;20031;-90
2022/12/25 05:26:15;;;;;;;55.35;18.90;;;;;;;7.34;100.00;101283.13;4981720;28;20513;-90
2022/12/25 05:28:41;;;;;;;55.97;20.55;;;;;;;7.47;100.00;101287.56;4997665;28;20030;-90
2022/12/25 05:31:07;;;;;;;47.00;19.98;;;;;;;7.44;100.00;101281.84;4997478;28;20440;-89
2022/12/25 05:33:32;;;;;;;52.63;19.35;;;;;;;7.40;100.00;101275.34;4985209;28;20494;-89
2022/12/25 05:36:02;;;;;;;47.88;17.70;;;;;;;7.42;100.00;101275.81;5000473;28;21015;-89
2022/12/25 05:38:27;;;;;;;49.00;19.70;;;;;;;7.49;100.00;101276.88;4989510;28;20027;-90
2022/12/25 05:40:52;;;;;;;41.70;18.23;;;;;;;7.46;100.00;101262.81;4989679;28;20045;-89
2022/12/25 05:43:18;;;;;;;50.75;16.83;;;;;;;7.52;100.00;101272.56;4983910;28;20449;-88
2022/12/25 05:45:43;;;;;;;52.85;18.42;;;;;;;7.49;100.00;101260.16;4987945;28;20027;-90
2022/12/25 05:48:09;;;;;;;49.97;17.70;;;;;;;7.41;100.00;101243.56;4987566;28;20030;-90
2022/12/25 05:50:36;;;;;;;41.20;18.33;;;;;;;7.48;100.00;101243.78;4987741;28;20058;-90
2022/12/25 05:53:10;;;;;;;54.08;18.60;;;;;;;7.46;100.00;101246.94;4982651;28;20083;-90
2022/12/25 05:55:38;;;;;;;52.83;20.17;;;;;;;7.53;100.00;101263.88;4987247;28;20040;-90
2022/12/25 05:58:04;;;;;;;60.10;21.25;;;;;;;7.60;100.00;101268.06;4987454;28;20103;-90
2022/12/25 06:00:30;;;;;;;62.85;19.83;;;;;;;7.50;100.00;101236.69;4981948;28;20504;-90
2022/12/25 06:02:55;;;;;;;48.67;17.77;;;;;;;7.47;100.00;101254.13;4983290;28;20046;-90
2022/12/25 06:05:21;;;;;;;45.45;18.83;;;;;;;7.45;100.00;101248.09;4974878;28;20041;-89
2022/12/25 06:07:46;;;;;;;49.85;18.17;;;;;;;7.51;100.00;101257.84;4980442;28;20046;-89
2022/12/25 06:10:11;;;;;;;40.08;16.38;;;;;;;7.53;100.00;101269.44;4977167;28;20034;-90
2022/12/25 06:12:37;;;;;;;42.08;16.77;;;;;;;7.59;100.00;101263.63;4993321;28;20027;-90
2022/12/25 06:15:03;;;;;;;57.15;18.23;;;;;;;7.45;100.00;101238.94;4979599;28;20050;-90
2022/12/25 06:17:29;;;;;;;45.00;17.52;;;;;;;7.52;100.00;101239.16;4994341;28;20028;-90
2022/12/25 06:19:54;;;;;;;50.35;17.42;;;;;;;7.48;100.00;101236.28;4975804;28;20034;-89
2022/12/25 06:22:20;;;;;;;43.38;18.98;;;;;;;7.51;100.00;101241.13;4976467;28;20026;-89
2022/12/25 06:24:45;;;;;;;54.28;18.40;;;;;;;7.33;100.00;101209.09;4977194;28;20605;-90
2022/12/25 06:27:11;;;;;;;49.42;18.58;;;;;;;7.28;100.00;101215.72;4977915;28;20749;-89
2022/12/25 06:29:36;;;;;;;37.45;15.38;;;;;;;7.31;100.00;101208.63;4986191;28;20034;-90
2022/12/25 06:32:02;;;;;;;44.83;16.58;;;;;;;7.36;100.00;101236.25;4983742;28;20117;-89
2022/12/25 06:34:27;;;;;;;44.83;15.82;;;;;;;7.36;100.00;101227.91;4980675;28;20140;-89
2022/12/25 06:36:53;;;;;;;42.10;15.70;;;;;;;7.37;100.00;101237.06;4985477;28;20030;-89
2022/12/25 06:39:20;;;;;;;40.42;17.45;;;;;;;7.29;100.00;101209.00;4984747;28;20037;-90
2022/12/25 06:41:46;;;;;;;41.63;15.40;;;;;;;7.23;100.00;101206.75;4982465;28;20043;-90
2022/12/25 06:44:12;;;;;;;39.35;15.95;;;;;;;7.36;100.00;101224.28;4985735;28;20372;-89
2022/12/25 06:46:37;;;;;;;40.28;15.93;;;;;;;7.39;100.00;101227.19;4978201;28;21789;-89
2022/12/25 06:49:03;;;;;;;41.42;16.73;;;;;;;7.17;100.00;101191.44;4987373;28;20097;-89
2022/12/25 06:51:30;;;;;;;34.67;14.98;;;;;;;7.35;100.00;101220.69;4984945;28;20092;-89
2022/12/25 06:53:56;;;;;;;31.92;14.68;;;;;;;7.28;100.00;101200.97;4983198;28;20042;-89
2022/12/25 06:56:24;;;;;;;40.00;13.77;;;;;;;7.36;100.00;101225.13;4980019;28;20031;-89
2022/12/25 06:58:54;;;;;;;40.60;16.10;;;;;;;7.37;100.00;101223.94;4998887;28;20045;-89
2022/12/25 07:01:23;;;;;;;38.20;16.00;;;;;;;7.36;100.00;101213.97;4995204;28;20042;-89
2022/12/25 07:03:52;;;;;;;30.38;13.63;;;;;;;7.29;100.00;101213.72;4993500;28;20038;-89
2022/12/25 07:06:18;;;;;;;40.72;14.95;;;;;;;7.21;100.00;101193.22;4984164;28;20611;-90
2022/12/25 07:08:43;;;;;;;42.92;15.45;;;;;;;7.21;100.00;101201.56;4995405;28;21788;-90
2022/12/25 07:11:09;;;;;;;35.45;14.55;;;;;;;7.20;100.00;101196.34;4998220;28;20038;-89
2022/12/25 07:13:34;;;;;;;28.70;13.18;;;;;;;7.10;100.00;101172.53;4985832;28;20033;-89
2022/12/25 07:16:02;;;;;;;29.63;13.27;;;;;;;7.19;100.00;101191.91;4978943;28;20107;-90
2022/12/25 07:18:28;;;;;;;33.20;14.43;;;;;;;7.14;100.00;101184.59;4984431;28;20034;-90
2022/12/25 07:20:58;;;;;;;27.25;12.95;;;;;;;7.26;100.00;101195.75;4983247;28;20479;-90
2022/12/25 07:23:24;;;;;;;29.73;14.75;;;;;;;7.32;100.00;101211.06;4980233;28;20026;-89
2022/12/25 07:25:58;;;;;;;25.40;11.60;;;;;;;7.35;100.00;101223.47;4983992;28;20030;-89
2022/12/25 07:28:24;;;;;;;24.63;12.05;;;;;;;7.25;100.00;101207.22;5001243;28;20542;-89
2022/12/25 07:30:50;;;;;;;33.20;13.27;;;;;;;7.36;100.00;101213.97;4982506;28;20026;-90
2022/12/25 07:33:16;;;;;;;29.13;13.07;;;;;;;7.24;100.00;101200.06;4989612;28;20436;-89
2022/12/25 07:35:42;;;;;;;30.70;13.00;;;;;;;7.27;100.00;101196.56;4992174;28;20026;-89
2022/12/25 07:38:07;;;;;;;28.98;14.07;;;;;;;7.34;100.00;101216.31;5007691;28;20041;-89
2022/12/25 07:40:32;;;;;;;27.77;12.13;;;;;;;7.30;100.00;101204.22;5006297;28;20030;-89
2022/12/25 07:42:58;;;;;;;22.40;11.68;;;;;;;7.38;100.00;101211.66;5002814;28;20387;-89
2022/12/25 07:45:23;;;;;;;26.65;12.30;;;;;;;7.47;100.00;101231.84;4992916;28;20034;-90
2022/12/25 07:47:49;;;;;;;27.25;12.10;;;;;;;7.36;100.00;101225.13;4992362;28;20034;-90
2022/12/25 07:50:15;;;;;;;29.10;11.60;;;;;;;7.46;100.00;101224.66;4998276;28;20034;-90
2022/12/25 07:52:40;;;;;;;32.17;12.07;;;;;;;7.31;100.00;101200.28;4992964;28;20058;-90
2022/12/25 07:55:06;;;;;;;25.13;11.50;;;;;;;7.46;100.00;101213.53;4992412;28;20435;-89
2022/12/25 07:57:32;;;;;;;27.95;11.50;;;;;;;7.48;100.00;101214.00;5000135;28;20034;-89
2022/12/25 07:59:57;;;;;;;32.67;13.15;;;;;;;7.50;100.00;101224.75;4989443;28;20029;-90
2022/12/25 08:02:27;;;;;;;30.95;10.57;;;;;;;7.40;100.00;101220.47;4983408;28;20084;-89
2022/12/25 08:04:56;;;;;;;30.35;10.63;;;;;;;7.31;100.00;101206.66;4987891;28;20058;-90
2022/12/25 08:07:22;;;;;;;27.60;11.82;;;;;;;7.46;100.00;101233.03;4985189;28;21662;-89
2022/12/25 08:09:47;;;;;;;31.65;12.02;;;;;;;7.35;100.00;101223.47;4986060;28;20121;-89
2022/12/25 08:12:12;;;;;;;38.75;12.48;;;;;;;7.48;100.00;101254.94;4984646;28;20134;-89
2022/12/25 08:14:38;;;;;;;21.58;10.82;;;;;;;7.38;100.00;101238.69;4983861;28;20125;-90
2022/12/25 08:17:03;;;;;;;28.88;12.40;;;;;;;7.38;100.00;101222.81;4986161;28;20061;-90
2022/12/25 08:19:29;;;;;;;25.25;10.90;;;;;;;7.37;100.00;101223.16;4996429;28;20092;-90
2022/12/25 08:21:55;;;;;;;33.50;11.70;;;;;;;7.44;100.00;101235.34;4978098;28;20038;-89
2022/12/25 08:24:21;;;;;;;21.40;11.73;;;;;;;7.49;100.00;101246.25;4999276;28;20113;-89
2022/12/25 08:26:46;;;;;;;26.73;12.48;;;;;;;7.41;100.00;101226.84;4997047;28;20041;-90
2022/12/25 08:29:12;;;;;;;24.70;11.98;;;;;;;7.43;100.00;101233.69;4980773;28;20060;-89
2022/12/25 08:31:40;;;;;;;27.92;12.88;;;;;;;7.51;100.00;101243.91;4999448;28;20031;-89
2022/12/25 08:34:05;;;;;;;27.42;10.98;;;;;;;7.46;100.00;101241.38;4980026;28;20037;-89
2022/12/25 08:36:31;;;;;;;25.77;11.30;;;;;;;7.50;100.00;101247.84;4988415;28;20038;-90
2022/12/25 08:38:56;;;;;;;37.20;12.85;;;;;;;7.49;100.00;101251.81;4987335;28;20040;-90
2022/12/25 08:41:22;;;;;;;32.40;11.90;;;;;;;7.37;100.00;101253.78;4987495;28;20033;-90
2022/12/25 08:43:47;;;;;;;26.73;12.43;;;;;;;7.40;100.00;101265.03;4987258;28;20027;-89
2022/12/25 08:46:13;;;;;;;28.33;13.05;;;;;;;7.27;100.00;101244.72;4987825;28;20077;-89
2022/12/25 08:48:43;;;;;;;22.88;11.55;;;;;;;7.38;100.00;101253.44;4985765;28;20042;-89
2022/12/25 08:51:15;;;;;;;26.88;11.68;;;;;;;7.47;100.00;101259.69;4986422;28;20038;-89
2022/12/25 08:53:45;;;;;;;26.10;11.40;;;;;;;7.40;100.00;101245.56;4996066;28;20108;-90
2022/12/25 08:56:14;;;;;;;27.38;11.18;;;;;;;7.33;100.00;101236.94;4981927;28;20108;-89
2022/12/25 08:58:39;;;;;;;29.83;12.43;;;;;;;7.39;100.00;101235.56;4982225;28;20478;-89
2022/12/25 09:01:06;;;;;;;27.10;11.13;;;;;;;7.41;100.00;101247.16;4984050;28;20065;-89
2022/12/25 09:03:32;;;;;;;30.73;12.02;;;;;;;7.30;100.00;101223.72;4983417;28;20054;-89
2022/12/25 09:06:12;;;;;;;29.52;12.98;;;;;;;7.45;100.00;101234.16;4983429;28;20038;-89
2022/12/25 09:08:38;;;;;;;30.50;12.38;;;;;;;7.49;100.00;101231.50;4989360;28;20038;-89
2022/12/25 09:11:10;;;;;;;29.92;11.77;;;;;;;7.43;100.00;101224.53;4994299;28;20026;-89
2022/12/25 09:13:36;;;;;;;28.40;12.77;;;;;;;7.61;100.00;101230.66;4982888;28;20030;-85
2022/12/25 09:16:11;;;;;;;32.35;13.43;;;;;;;7.59;100.00;101227.41;4989976;28;20041;-84
2022/12/25 09:18:36;;;;;;;21.10;10.43;;;;;;;7.51;100.00;101232.78;4988619;28;20062;-85
2022/12/25 09:21:05;;;;;;;27.85;10.27;;;;;;;7.60;100.00;101232.66;5002880;28;20056;-85
2022/12/25 09:23:31;;;;;;;26.88;12.45;;;;;;;7.63;100.00;101225.56;4980625;28;20030;-85
2022/12/25 09:25:58;;;;;;;26.67;11.85;;;;;;;7.67;100.00;101234.84;4993944;28;20093;-85
2022/12/25 09:28:24;;;;;;;27.20;11.57;;;;;;;7.68;100.00;101203.84;4988986;28;20513;-85
2022/12/25 09:30:50;;;;;;;28.70;11.90;;;;;;;7.69;100.00;101226.94;4984022;28;20030;-85
2022/12/25 09:33:16;;;;;;;33.28;12.70;;;;;;;7.64;100.00;101230.00;4986140;28;20117;-84
2022/12/25 09:35:41;;;;;;;26.92;12.30;;;;;;;7.64;100.00;101230.78;4976830;28;20141;-85
2022/12/25 09:38:06;;;;;;;28.38;11.77;;;;;;;7.72;100.00;101234.63;4981278;28;20026;-83
2022/12/25 09:40:32;;;;;;;30.95;11.73;;;;;;;7.71;100.00;101235.78;4984513;28;20018;-85
2022/12/25 09:42:59;;;;;;;31.80;11.68;;;;;;;7.64;100.00;101221.63;4986396;28;20026;-84
2022/12/25 09:45:28;;;;;;;28.98;10.75;;;;;;;7.72;100.00;101234.63;4986157;28;20030;-84
2022/12/25 09:47:55;;;;;;;32.28;12.25;;;;;;;7.63;100.00;101223.63;4974642;28;20093;-84
2022/12/25 09:50:36;;;;;;;30.52;13.43;;;;;;;7.74;100.00;101223.94;5000939;28;20041;-84
2022/12/25 09:53:09;;;;;;;25.75;10.88;;;;;;;7.78;100.00;101224.88;4979651;28;20022;-84
2022/12/25 09:55:42;;;;;;;25.17;10.18;;;;;;;7.83;100.00;101244.13;4979653;28;20038;-84
2022/12/25 09:58:12;;;;;;;24.38;11.02;;;;;;;7.80;100.00;101232.88;4982618;28;20041;-84
2022/12/25 10:00:41;;;;;;;25.45;12.75;;;;;;;7.78;100.00;101215.69;4981498;28;20040;-85
2022/12/25 10:03:21;;;;;;;25.77;11.38;;;;;;;7.85;100.00;101213.94;4998137;28;20406;-84
2022/12/25 10:06:25;;;;;;;24.05;10.00;;;;;;;7.88;100.00;101224.38;4995090;28;20053;-86
2022/12/25 10:09:05;;;;;;;32.97;11.38;;;;;;;7.83;100.00;101226.59;4988208;28;20034;-84
2022/12/25 10:12:00;;;;;;;27.88;11.80;;;;;;;7.78;100.00;101236.03;4998738;28;20033;-84
2022/12/25 10:14:43;;;;;;;25.92;10.68;;;;;;;7.84;100.00;101240.19;4980337;28;20022;-85
2022/12/25 10:17:27;;;;;;;23.33;10.73;;;;;;;7.93;100.00;101240.88;4982019;28;20036;-84
2022/12/25 10:20:03;;;;;;;33.83;11.75;;;;;;;7.90;100.00;101247.13;4999295;28;20466;-84
2022/12/25 10:22:39;;;;;;;27.17;11.80;;;;;;;7.92;100.00;101224.47;4980649;28;20556;-85
2022/12/25 10:25:15;;;;;;;22.67;11.13;;;;;;;7.86;100.00;101226.72;4981987;28;20057;-85
2022/12/25 10:27:41;;;;;;;23.65;12.50;;;;;;;7.94;100.00;101234.13;4999541;28;20131;-85
2022/12/25 10:30:19;;;;;;;27.15;11.52;;;;;;;7.93;100.00;101224.13;4978025;28;20034;-84
2022/12/25 10:32:46;;;;;;;22.40;10.40;;;;;;;7.92;100.00;101230.88;4980628;28;20030;-85
2022/12/25 10:35:14;;;;;;;22.33;11.48;;;;;;;7.94;100.00;101239.69;4980395;28;20121;-84
2022/12/25 10:37:41;;;;;;;31.08;12.88;;;;;;;7.94;100.00;101228.53;4985224;28;20049;-84
2022/12/25 10:40:42;;;;;;;26.25;12.15;;;;;;;7.96;100.00;101235.75;4986060;28;20030;-84
2022/12/25 10:43:25;;;;;;;27.90;11.60;;;;;;;7.97;100.00;101237.38;4979698;28;20041;-85
2022/12/25 10:45:54;;;;;;;28.95;11.23;;;;;;;7.91;100.00;101217.31;4979580;28;20027;-85
2022/12/25 10:48:26;;;;;;;30.05;11.30;;;;;;;7.93;100.00;101199.06;4982254;28;20038;-85
2022/12/25 10:50:52;;;;;;;23.10;11.05;;;;;;;8.01;100.00;101199.25;4984042;28;20485;-85
2022/12/25 10:53:25;;;;;;;24.85;10.38;;;;;;;8.10;100.00;101203.53;4981086;28;20044;-84
2022/12/25 10:55:58;;;;;;;25.63;11.48;;;;;;;8.07;100.00;101197.84;4999764;28;20026;-84
2022/12/25 10:58:23;;;;;;;27.58;10.55;;;;;;;8.10;100.00;101170.09;4984354;28;20096;-84
2022/12/25 11:00:58;;;;;;;24.20;11.27;;;;;;;8.05;100.00;101166.72;4980440;28;20038;-86
2022/12/25 11:03:28;;;;;;;20.02;11.60;;;;;;;8.03;100.00;101185.78;4998147;28;20518;-84
2022/12/25 11:05:54;;;;;;;25.77;11.27;;;;;;;7.88;100.00;101168.63;5004511;28;20034;-85
2022/12/25 11:08:23;;;;;;;26.38;10.77;;;;;;;8.12;100.00;101161.38;4994290;28;20027;-85
2022/12/25 11:10:55;;;;;;;20.52;10.18;;;;;;;8.02;100.00;101142.34;4981685;28;20026;-85
2022/12/25 11:13:29;;;;;;;23.10;11.65;;;;;;;8.03;100.00;101138.38;4987779;28;20105;-84
2022/12/25 11:16:29;;;;;;;16.90;10.88;;;;;;;8.05;100.00;101138.84;4981437;28;20679;-85
2022/12/25 11:18:56;;;;;;;19.30;9.65;;;;;;;8.08;100.00;101124.22;4967632;28;20065;-84
2022/12/25 11:21:24;;;;;;;26.25;11.18;;;;;;;7.99;100.00;101131.91;4989128;28;20108;-84
2022/12/25 11:24:05;;;;;;;36.47;11.93;;;;;;;8.09;100.00;101120.25;4988264;28;20121;-84
2022/12/25 11:26:45;;;;;;;23.13;10.30;;;;;;;8.06;100.00;101118.19;4988674;28;20478;-84
2022/12/25 11:29:24;;;;;;;26.50;10.80;;;;;;;8.11;100.00;101104.78;4985465;28;20034;-85
2022/12/25 11:31:50;;;;;;;21.17;11.45;;;;;;;8.04;100.00;101120.50;5003040;28;20499;-85
2022/12/25 11:34:27;;;;;;;30.88;12.40;;;;;;;8.04;100.00;101110.16;4994942;28;20015;-85
2022/12/25 11:36:53;;;;;;;22.15;9.85;;;;;;;8.12;100.00;101111.19;4984585;28;20209;-85
2022/12/25 11:39:30;;;;;;;19.27;9.57;;;;;;;8.12;100.00;101109.19;4989232;28;20039;-84
2022/12/25 11:42:07;;;;;;;23.48;11.18;;;;;;;8.08;100.00;101105.50;4989826;28;20053;-84
2022/12/25 11:44:42;;;;;;;28.02;11.32;;;;;;;8.08;100.00;101104.69;4986140;28;20034;-84
2022/12/25 11:47:25;;;;;;;18.55;10.38;;;;;;;8.14;100.00;101094.91;4986562;28;20026;-85
2022/12/25 11:50:03;;;;;;;20.60;10.68;;;;;;;8.15;100.00;101082.56;4983891;28;20676;-86
2022/12/25 11:52:35;;;;;;;20.30;10.20;;;;;;;8.08;100.00;101065.66;4982147;28;20045;-84
2022/12/25 11:55:16;;;;;;;17.92;10.32;;;;;;;8.13;100.00;101057.03;4984686;28;20026;-84
2022/12/25 11:57:46;;;;;;;24.35;10.23;;;;;;;8.15;100.00;101063.88;4999505;28;20046;-85
2022/12/25 12:00:14;;;;;;;24.15;9.50;;;;;;;8.17;100.00;101074.66;4985784;28;20501;-85
2022/12/25 12:03:16;;;;;;;24.83;10.30;;;;;;;8.18;100.00;101059.56;4988522;28;20047;-85
2022/12/25 12:05:54;;;;;;;22.00;11.02;;;;;;;8.19;100.00;101038.88;5002176;28;20199;-85
2022/12/25 12:08:20;;;;;;;21.08;10.02;;;;;;;8.17;100.00;101023.69;5001335;28;20125;-86
2022/12/25 12:11:17;;;;;;;19.33;10.65;;;;;;;8.28;100.00;101033.91;4985054;28;20859;-85
2022/12/25 12:14:06;;;;;;;26.23;10.40;;;;;;;8.33;100.00;101042.03;5005014;28;20109;-84
2022/12/25 12:16:32;;;;;;;33.08;12.43;;;;;;;8.33;100.00;101027.28;4985010;28;20034;-84
2022/12/25 12:19:09;;;;;;;23.20;11.55;;;;;;;8.33;100.00;101025.31;4991794;28;20155;-85
2022/12/25 12:21:35;;;;;;;25.45;11.85;;;;;;;8.26;100.00;101011.16;4982463;28;20034;-84
2022/12/25 12:24:17;;;;;;;24.65;11.70;;;;;;;8.31;100.00;101024.06;4985635;28;20034;-84
2022/12/25 12:26:45;;;;;;;28.08;12.27;;;;;;;8.34;100.00;101023.31;4983227;28;20061;-85
2022/12/25 12:29:25;;;;;;;24.75;11.80;;;;;;;8.21;100.00;101014.22;4984801;28;20181;-84
2022/12/25 12:31:52;;;;;;;22.23;10.63;;;;;;;8.25;100.00;101015.13;4982390;28;20034;-84
2022/12/25 12:34:26;;;;;;;23.27;11.40;;;;;;;8.27;100.00;101020.34;4986123;28;20568;-84
2022/12/25 12:37:00;;;;;;;31.65;12.88;;;;;;;8.27;100.00;101026.75;4988314;28;20030;-84
2022/12/25 12:39:32;;;;;;;23.92;12.52;;;;;;;8.23;100.00;101034.19;4996625;28;20035;-84
2022/12/25 12:41:58;;;;;;;25.25;12.02;;;;;;;8.21;100.00;101024.59;4981080;28;20383;-84
2022/12/25 12:44:30;;;;;;;22.67;11.85;;;;;;;8.24;100.00;101030.25;5003645;28;20097;-84
2022/12/25 12:46:56;;;;;;;25.42;11.23;;;;;;;8.19;100.00;101032.50;4982682;28;20026;-85
2022/12/25 12:49:28;;;;;;;21.90;11.45;;;;;;;8.08;100.00;101004.34;4986007;28;20446;-83
2022/12/25 12:52:42;;;;;;;26.70;11.30;;;;;;;8.25;100.00;101020.72;4984337;28;20533;-84
2022/12/25 12:55:11;;;;;;;24.00;13.27;;;;;;;8.27;100.00;101015.59;4950320;28;20038;-84
2022/12/25 12:57:38;;;;;;;23.23;12.02;;;;;;;8.19;100.00;101007.41;4954332;28;20058;-84
2022/12/25 13:00:10;;;;;;;21.77;11.27;;;;;;;8.14;100.00;101000.91;4965428;28;20052;-85
2022/12/25 13:02:42;;;;;;;27.90;13.38;;;;;;;8.18;100.00;101009.38;4983406;28;20034;-84
2022/12/25 13:05:21;;;;;;;27.85;11.80;;;;;;;8.24;100.00;101001.53;4984022;28;20514;-84